Nearby METAR Reports

CWGD - Goderich (autob), Ontario, Canada
Distance from station: SW 47km
Updated: 04/19/2018 2:00pm

 Wind from NNW
Wind: NNW 31 km/h, Gust: 44 km/h
Temperature: 0°C
Wind Chill: -7°C
Dew Point: -4°C
Humidity: 75%
2018/04/19 18:00 CWGD 191800Z AUTO 34017G24KT M00/M04 RMK AO1 PK WND 33024/1752 SLP204 T10021035 51020
CWLS - Mount Forest(Mar, Ontario, Canada
Distance from station: ESE 53km
Updated: 04/19/2018 2:00pm

 Wind from NNW
Wind: NNW 19 km/h, Gust: 30 km/h
Temperature: 0°C
Wind Chill: -5°C
Dew Point: -5°C
Humidity: 69%
2018/04/19 18:00 CWLS 191800Z AUTO 33010G16KT M00/M05 RMK AO1 1020 PK WND 31018/1718 SLP182 T10011049 50002
 
CYVV - Wiarton Air, Ontario, Canada
Distance from station: NNE 75km
Updated: 04/19/2018 2:00pm
Few Clouds
Few Clouds
 Wind from N
Wind: N 17 km/h, Gust: 33 km/h
Temperature: 2°C
Wind Chill: -2°C
Dew Point: -7°C
Humidity: 52%
Barometer: 1018.3 hPa
Clouds: Few Clouds
Visibility: 24 km
Cloud details: Few Clouds 914 m
Few Clouds 9144 m
2018/04/19 18:00 CYVV 191800Z 35009G18KT 310V040 15SM FEW030 FEW300 02/M07 A3007 RMK SC1CI1 SLP194
CZEL - Elora Rcs, Ontario, Canada
Distance from station: ESE 93km
Updated: 04/19/2018 2:00pm

 Wind from NNW
Wind: NNW 31 km/h, Gust: 41 km/h
Temperature: 0°C
Wind Chill: -7°C
Dew Point: -5°C
Humidity: 69%
2018/04/19 18:00 CZEL 191800Z AUTO 33017G22KT M00/M05 RMK AO1 1020 PK WND 31024/1749 SLP175 T10011053 50007
 
CWCO - Collingwood (aut, Ontario, Canada
Distance from station: ENE 104km
Updated: 04/19/2018 2:00pm

 Wind from NW
Wind: NW 31 km/h, Gust: 46 km/h
Temperature: 1°C
Wind Chill: -5°C
Dew Point: -4°C
Humidity: 70%
2018/04/19 18:00 CWCO 191800Z AUTO 32017G25KT 01/M04 RMK AO1 PK WND 33025/1759 SLP178 T00141040 51020
CYKF - Waterloo Well, Ontario, Canada
Distance from station: SE 107km
Updated: 04/19/2018 2:00pm
Overcast
Overcast
 Wind from NW
Wind: NW 22 km/h, Gust: 35 km/h
Temperature: 1°C
Wind Chill: -4°C
Dew Point: -4°C
Humidity: 70%
Barometer: 1016.3 hPa
Clouds: Overcast
Visibility: 14 km
Cloud details: Mostly cloudy 823 m
Overcast 1006 m
2018/04/19 18:00 CYKF 191800Z AUTO 31012G19KT 9SM BKN027 OVC033 01/M04 A3001 RMK SLP176
 
KP58 - Port Hope, Michigan, USA
Distance from station: W 114km
Updated: 04/19/2018 2:51pm

 Wind from NNW
Wind: NNW 15 km/h
Temperature: 3°C
Wind Chill: -1°C
Dew Point: -3°C
Humidity: 65%
Barometer: 1021.7 hPa
2018/04/19 18:51 KP58 191851Z AUTO 34008KT 03/M03 A3017 RMK AO1 SLP225 T00331033 $
CYBN - Borden, Ontario, Canada
Distance from station: E 118km
Updated: 04/19/2018 2:00pm

 Wind from NW
Wind: NW 24 km/h, Gust: 46 km/h
Barometer: 1015.9 hPa
Visibility: 14 km
2018/04/19 18:00 CYBN 191800Z AUTO 32013G25KT 290V350 9SM A3000
 
CYXU - London Airport, Ontario, Canada
Distance from station: S 123km
Updated: 04/19/2018 2:00pm
Overcast
Overcast
 Wind from NW
Wind: NW 20 km/h, Gust: 39 km/h
Temperature: 1°C
Wind Chill: -4°C
Dew Point: -3°C
Humidity: 75%
Barometer: 1018.6 hPa
Clouds: Overcast
Visibility: 24 km
Cloud details: Overcast 610 m
2018/04/19 18:00 CYXU 191800Z 31011G21KT 15SM OVC020 01/M03 A3008 RMK SC8 SLP197
CXET - Egbert Cs, Ontario, Canada
Distance from station: E 128km
Updated: 04/19/2018 2:00pm

 Wind from NW
Wind: NW 20 km/h, Gust: 37 km/h
Temperature: 1°C
Wind Chill: -4°C
Dew Point: -7°C
Humidity: 56%
2018/04/19 18:00 CXET 191800Z AUTO 31011G20KT 01/M07 RMK AO1 PK WND 30027/1719 SLP162 T00111066 51020
 
CWMZ - Western Isl (map, Ontario, Canada
Distance from station: NE 129km
Updated: 04/19/2018 2:00pm

 Wind from NNW
Wind: NNW 52 km/h
Temperature: 0°C
Wind Chill: -8°C
Dew Point: -6°C
Humidity: 64%
2018/04/19 18:00 CWMZ 191800Z AUTO 33028KT 00/M06 RMK AO1 PK WND 33032/1740 SLP174 T00001055 52020
KBAX - Bad Axe, Michigan, USA
Distance from station: WSW 133km
Updated: 04/19/2018 2:56pm
Clear
Clear
 Wind from N
Wind: N 22 km/h, Gust: 37 km/h
Temperature: 5°C
Wind Chill: 1°C
Dew Point: -4°C
Humidity: 53%
Barometer: 1022 hPa
Clouds: Clear
Visibility: 16 km
2018/04/19 18:56 KBAX 191856Z AUTO 01012G20KT 10SM CLR 05/M04 A3018 RMK AO2 T00481040
 
CWWX - Cove Island (map, Ontario, Canada
Distance from station: NNW 137km
Updated: 04/19/2018 1:00pm
NOT Current

 Wind from NE
Wind: NE 22 km/h
Temperature: 3°C
Wind Chill: -2°C
Dew Point: -5°C
Humidity: 56%
2018/04/19 17:00 CWWX 191700Z AUTO 05012KT 03/M05 RMK AO1 PK WND 03021/1630 T00271054 51020
CYZR - Sarnia Airport, Ontario, Canada
Distance from station: SSW 144km
Updated: 04/19/2018 2:00pm
Overcast
Overcast
 Wind from N
Wind: N 35 km/h, Gust: 44 km/h
Temperature: 2°C
Wind Chill: -4°C
Dew Point: -2°C
Humidity: 75%
Barometer: 1020.7 hPa
Clouds: Overcast
Visibility: 14 km
Cloud details: Overcast 1067 m
2018/04/19 18:00 CYZR 191800Z AUTO 01019G24KT 9SM OVC035 02/M02 A3014 RMK SLP216
 
CXHM - Hamilton Rbg Cs, Ontario, Canada
Distance from station: SE 150km
Updated: 04/19/2018 2:00pm

 Wind from WNW
Wind: WNW 17 km/h, Gust: 30 km/h
Temperature: 4°C
Wind Chill: 0°C
Dew Point: -3°C
Humidity: 61%
2018/04/19 18:00 CXHM 191800Z AUTO 30009G16KT 04/M03 RMK AO1 PK WND 31018/1714 SLP168 T00391027 52020
CYYZ - Toronto/Pearson, Ontario, Canada
Distance from station: ESE 150km
Updated: 04/19/2018 2:00pm
Mostly cloudy
Mostly cloudy
 Wind from NNW
Wind: NNW 24 km/h, Gust: 41 km/h
Temperature: 3°C
Wind Chill: -2°C
Dew Point: -5°C
Humidity: 56%
Barometer: 1015.6 hPa
Clouds: Mostly cloudy
Visibility: 24 km
Cloud details: Mostly cloudy 1006 m
Mostly cloudy 1585 m
2018/04/19 18:00 CYYZ 191800Z 33013G22KT 15SM BKN033 BKN052 03/M05 A2999 RMK SC5SC2 CU ASOCTD SLP163
 
CXBI - Barrie-Oro, Ontario, Canada
Distance from station: ENE 151km
Updated: 04/19/2018 2:00pm

 Wind from NNW
Wind: NNW 24 km/h, Gust: 33 km/h
Temperature: 1°C
Wind Chill: -4°C
Dew Point: -6°C
Humidity: 60%
2018/04/19 18:00 CXBI 191800Z AUTO 33013G18KT 01/M06 RMK AO1 SOG 14 3010 PK WND 30019/1741 SLP160 T00111062
CXDI - Delhi Cs (aut), Ontario, Canada
Distance from station: SSE 154km
Updated: 04/19/2018 2:00pm

 Wind from NW
Wind: NW 26 km/h, Gust: 35 km/h
Temperature: 4°C
Wind Chill: -1°C
Dew Point: -3°C
Humidity: 61%
2018/04/19 18:00 CXDI 191800Z AUTO 32014G19KT 04/M03 RMK AO1 PK WND 32019/1706 SLP175 T00361031 51020
 
CWWB - Burlington Piers, Ontario, Canada
Distance from station: SE 157km
Updated: 04/19/2018 2:00pm

 
Temperature: 4°C
Dew Point: -6°C
Humidity: 48%
2018/04/19 18:00 CWWB 191800Z AUTO 04/M06 RMK AO1 20 3010 SLP167 T00371056
CYHM - Hamilton Airport, Ontario, Canada
Distance from station: SE 157km
Updated: 04/19/2018 2:00pm
Mostly cloudy
Mostly cloudy
 Wind from WNW
Wind: WNW 28 km/h, Gust: 39 km/h
Temperature: 3°C
Wind Chill: -3°C
Dew Point: -4°C
Humidity: 60%
Barometer: 1016.3 hPa
Clouds: Mostly cloudy
Visibility: 24 km
Cloud details: Partly cloudy 975 m
Mostly cloudy 1158 m
2018/04/19 18:00 CYHM 191800Z 30015G21KT 15SM SCT032 BKN038 03/M04 A3001 RMK SC4SC2 SLP172